カーナーク/チューレ空軍基地 の空港の天気 - METARとTAF

チューレ空軍基地 ( BGTL / THU ) - グリーンランド カーナーク
飛行場実況気象(Metar)
観測時間07/28 22:09 ADT (07/29 01:09 UTC)
風向・風速南南東 15m/s 瞬間風速19m/s
視程10km以上
天気現象
少しの雲 雲底高度 850m
全天の4割程度の雲 雲底高度 1280m
全天の8割程度の雲 雲底高度 1680m
全天を覆う雲 雲底高度 2440m
気温8℃
湿度100%
気圧1010.1hPa
METARBGTL 290109Z AUTO 15029G36KT 9999 FEW028 SCT042 BKN055 OVC080 08/08 A2988 RMK AO2 RAB07E09 SLP101 TSNO $
過去の天気等 Google飛行場航空写真 Wunderground天気予報

過去48時間のMETAR

飛行場予報(TAF)
データがありません